Time;durP1;ratioP1;P1;durP2;ratioP2;P2;SDS_P1;SDS_P2;PMS_P1;PMS_P2;Temp;Humidity;BMP_temperature;BMP_pressure;BME280_temperature;BME280_humidity;BME280_pressure;Samples;Min_cycle;Max_cycle;Signal;HPM_P1;HPM_P2
2022/04/22 00:00:06;;;;;;;15.47;10.07;;;;;;;11.17;87.00;94716.22;5032258;28;20160;-87
2022/04/22 00:02:31;;;;;;;21.37;9.50;;;;;;;10.90;87.82;94670.88;5024679;28;20621;-86
2022/04/22 00:04:57;;;;;;;19.43;10.33;;;;;;;11.05;88.27;94699.53;5018825;28;20187;-87
2022/04/22 00:07:22;;;;;;;16.57;9.80;;;;;;;10.96;87.88;94671.88;5019958;28;20191;-86
2022/04/22 00:09:48;;;;;;;16.17;10.73;;;;;;;11.18;88.09;94702.03;5024706;28;20219;-87
2022/04/22 00:12:13;;;;;;;14.73;9.93;;;;;;;10.87;86.65;94647.63;5031620;28;20180;-86
2022/04/22 00:14:39;;;;;;;17.20;9.70;;;;;;;10.93;86.94;94662.56;5032052;28;20239;-85
2022/04/22 00:17:05;;;;;;;17.90;10.13;;;;;;;11.13;87.24;94693.19;5014761;28;20196;-85
2022/04/22 00:19:30;;;;;;;18.33;10.57;;;;;;;11.09;86.90;94681.44;5036106;28;20156;-85
2022/04/22 00:21:56;;;;;;;16.03;10.57;;;;;;;10.84;86.90;94639.34;5018027;28;20175;-85
2022/04/22 00:24:21;;;;;;;17.70;10.17;;;;;;;10.73;87.28;94613.75;5035599;28;20642;-85
2022/04/22 00:26:47;;;;;;;16.20;10.60;;;;;;;11.04;87.78;94654.97;5035673;28;20188;-85
2022/04/22 00:29:12;;;;;;;18.57;10.27;;;;;;;10.78;87.69;94634.97;5035675;28;20234;-85
2022/04/22 00:31:38;;;;;;;18.90;9.57;;;;;;;10.86;88.16;94666.28;5035922;28;20239;-85
2022/04/22 00:34:04;;;;;;;20.87;10.63;;;;;;;10.75;88.73;94652.00;5035419;28;20263;-86
2022/04/22 00:36:29;;;;;;;17.33;10.03;;;;;;;10.66;88.73;94644.59;5035550;28;20243;-86
2022/04/22 00:38:56;;;;;;;18.93;10.97;;;;;;;10.31;88.66;94599.53;5035463;28;20193;-86
2022/04/22 00:41:22;;;;;;;20.13;11.50;;;;;;;10.29;89.11;94598.97;5035686;28;20171;-86
2022/04/22 00:43:50;;;;;;;19.87;11.07;;;;;;;10.81;89.49;94679.31;5035595;28;20164;-86
2022/04/22 00:46:16;;;;;;;18.93;9.47;;;;;;;10.83;89.91;94674.59;5035681;28;20193;-86
2022/04/22 00:48:43;;;;;;;18.33;11.37;;;;;;;10.83;90.53;94674.59;5035550;28;20183;-86
2022/04/22 00:51:10;;;;;;;19.90;12.97;;;;;;;10.83;90.60;94677.25;5012911;28;20180;-86
2022/04/22 00:53:45;;;;;;;19.00;12.03;;;;;;;10.84;90.88;94665.69;5024192;28;20176;-86
2022/04/22 00:56:10;;;;;;;18.17;10.30;;;;;;;10.83;91.11;94656.97;5024301;28;20245;-86
2022/04/22 00:58:39;;;;;;;20.07;11.83;;;;;;;10.90;91.11;94652.44;5025470;28;20251;-86
2022/04/22 01:01:05;;;;;;;16.47;11.00;;;;;;;10.83;91.17;94633.28;5034822;28;20349;-87
2022/04/22 01:03:31;;;;;;;13.97;10.53;;;;;;;10.89;89.73;94631.63;5035809;28;21074;-87
2022/04/22 01:11:27;;;;;;;12.73;8.60;;;;;;;10.80;88.67;94615.31;5035658;28;20589;-87
2022/04/22 01:13:54;;;;;;;15.27;9.20;;;;;;;10.90;89.23;94618.22;5017173;28;20580;-87
2022/04/22 01:16:20;;;;;;;14.60;9.50;;;;;;;10.67;88.95;94590.91;5017048;28;20229;-87
2022/04/22 01:18:45;;;;;;;19.23;9.90;;;;;;;10.66;89.00;94595.38;5017171;28;20692;-87
2022/04/22 01:21:11;;;;;;;17.07;10.40;;;;;;;10.70;89.48;94607.09;5034373;28;20735;-88
2022/04/22 01:23:36;;;;;;;15.37;8.87;;;;;;;10.42;89.65;94548.84;5034544;28;20171;-87
2022/04/22 01:26:03;;;;;;;14.57;9.07;;;;;;;10.35;89.59;94542.84;5017217;28;20180;-88
2022/04/22 01:28:28;;;;;;;15.17;9.70;;;;;;;10.30;90.20;94529.53;5034329;28;20203;-87
2022/04/22 01:30:56;;;;;;;14.30;8.63;;;;;;;10.72;90.17;94578.72;5033888;28;20649;-87
2022/04/22 01:33:21;;;;;;;13.50;9.03;;;;;;;10.32;89.74;94502.00;5034353;28;20156;-87
2022/04/22 01:35:47;;;;;;;13.83;9.53;;;;;;;10.48;89.27;94522.47;5034371;28;20573;-86
2022/04/22 01:38:12;;;;;;;12.97;8.83;;;;;;;10.78;89.15;94564.69;5035094;28;20167;-85
2022/04/22 01:40:37;;;;;;;12.63;9.03;;;;;;;10.47;88.93;94514.78;5034684;28;20644;-85
2022/04/22 01:43:04;;;;;;;14.93;9.30;;;;;;;10.25;89.18;94482.84;5016530;28;20184;-86
2022/04/22 01:45:30;;;;;;;15.97;9.60;;;;;;;10.79;89.34;94573.41;5016620;28;20179;-86
2022/04/22 01:47:56;;;;;;;16.03;9.07;;;;;;;10.46;89.65;94515.84;5034247;28;20196;-86
2022/04/22 01:50:22;;;;;;;17.47;9.97;;;;;;;10.52;89.83;94530.75;5034980;28;20171;-91
2022/04/22 01:52:47;;;;;;;18.83;9.90;;;;;;;10.65;90.00;94543.75;5016877;28;20234;-91
2022/04/22 01:55:13;;;;;;;14.03;9.47;;;;;;;10.54;89.82;94534.78;5034873;28;20160;-91
2022/04/22 01:57:38;;;;;;;17.10;10.00;;;;;;;10.83;89.87;94593.78;5034971;28;20173;-91
2022/04/22 02:00:06;;;;;;;15.40;10.30;;;;;;;10.30;90.42;94535.59;5018219;28;20187;-88
2022/04/22 02:02:32;;;;;;;16.77;10.93;;;;;;;10.17;91.11;94539.16;5017265;28;20199;-89
2022/04/22 02:04:57;;;;;;;18.60;10.77;;;;;;;10.24;91.56;94580.38;5010506;28;20559;-89
2022/04/22 02:07:23;;;;;;;20.07;12.87;;;;;;;10.09;92.06;94586.75;5004618;28;20207;-88
2022/04/22 02:09:49;;;;;;;18.83;12.00;;;;;;;10.07;92.29;94578.25;5023456;28;20228;-90
2022/04/22 02:12:15;;;;;;;24.23;13.07;;;;;;;10.04;92.52;94576.06;5026393;28;20620;-91
2022/04/22 02:14:41;;;;;;;24.33;12.03;;;;;;;10.41;92.19;94628.81;5025242;28;20179;-90
2022/04/22 02:17:06;;;;;;;21.23;12.27;;;;;;;10.04;91.28;94573.41;5021565;28;20196;-89
2022/04/22 02:19:32;;;;;;;40.10;23.43;;;;;;;9.92;91.49;94551.47;5020427;28;20260;-88
2022/04/22 02:21:58;;;;;;;36.83;20.63;;;;;;;10.34;91.31;94607.81;5008367;28;20565;-90
2022/04/22 02:24:23;;;;;;;26.47;15.80;;;;;;;9.94;91.72;94544.19;5016121;28;20575;-90
2022/04/22 02:29:33;;;;;;;30.23;17.57;;;;;;;10.23;91.25;94565.63;5034267;28;20226;-90
2022/04/22 02:31:59;;;;;;;18.57;9.70;;;;;;;10.39;90.50;94562.44;5015719;28;20175;-89
2022/04/22 02:34:25;;;;;;;15.73;9.70;;;;;;;10.43;90.44;94567.06;5026968;28;20239;-89
2022/04/22 02:36:51;;;;;;;18.37;10.97;;;;;;;10.33;89.93;94542.25;5008936;28;20203;-89
2022/04/22 02:39:18;;;;;;;14.17;9.40;;;;;;;10.59;90.30;94584.13;5004669;28;20184;-87
2022/04/22 02:47:12;;;;;;;19.17;12.80;;;;;;;10.36;91.22;94560.25;5033775;28;20649;-86
2022/04/22 02:49:38;;;;;;;31.20;16.73;;;;;;;10.38;91.80;94579.28;5015179;28;20219;-86
2022/04/22 02:52:04;;;;;;;21.87;13.33;;;;;;;10.29;92.23;94557.66;5032984;28;20656;-86
2022/04/22 02:54:30;;;;;;;41.27;22.80;;;;;;;10.41;91.96;94563.84;5033275;28;20164;-86
2022/04/22 02:56:57;;;;;;;20.87;12.70;;;;;;;10.35;92.01;94561.28;5032844;28;20630;-87
2022/04/22 02:59:24;;;;;;;19.10;11.83;;;;;;;10.45;92.22;94569.47;5028981;28;20565;-87
2022/04/22 03:01:49;;;;;;;19.77;12.60;;;;;;;10.26;91.91;94544.16;5005404;28;20175;-87
2022/04/22 03:04:15;;;;;;;17.17;9.10;;;;;;;10.45;91.22;94567.66;5018729;28;20192;-88
2022/04/22 03:06:41;;;;;;;14.17;9.07;;;;;;;10.63;90.56;94587.94;5021537;28;20250;-87
2022/04/22 03:09:07;;;;;;;16.20;10.10;;;;;;;10.62;90.26;94586.31;5013026;28;20719;-89
2022/04/22 03:11:34;;;;;;;18.97;13.07;;;;;;;10.53;90.36;94577.91;4995436;28;20272;-87
2022/04/22 03:13:59;;;;;;;27.83;14.50;;;;;;;9.97;91.30;94519.28;5012987;28;20523;-88
2022/04/22 03:16:26;;;;;;;27.47;15.70;;;;;;;10.12;92.42;94564.47;5012852;28;20242;-87
2022/04/22 03:18:52;;;;;;;31.73;17.97;;;;;;;9.98;92.83;94541.94;5013282;28;20161;-87
2022/04/22 03:21:18;;;;;;;25.50;15.07;;;;;;;10.34;92.84;94599.94;5012947;28;20251;-87
2022/04/22 03:23:45;;;;;;;21.20;13.03;;;;;;;9.85;92.48;94537.59;4995226;28;20181;-86
2022/04/22 03:26:10;;;;;;;34.13;18.77;;;;;;;10.04;93.08;94570.78;4995196;28;20180;-87
2022/04/22 03:28:36;;;;;;;57.47;31.93;;;;;;;10.15;93.28;94590.34;5013019;28;20255;-87
2022/04/22 03:31:01;;;;;;;29.17;16.63;;;;;;;10.00;93.16;94566.19;4995317;28;20181;-87
2022/04/22 03:33:27;;;;;;;25.00;14.23;;;;;;;10.06;92.60;94570.59;5012810;28;20160;-87
2022/04/22 03:35:52;;;;;;;27.40;15.77;;;;;;;10.11;92.82;94579.47;5012336;28;20714;-88
2022/04/22 03:38:19;;;;;;;30.07;16.97;;;;;;;10.34;92.80;94613.09;5012219;28;20281;-87
2022/04/22 03:40:45;;;;;;;28.10;14.53;;;;;;;10.03;92.99;94560.50;4994830;28;20177;-88
2022/04/22 03:43:11;;;;;;;27.57;15.03;;;;;;;10.26;92.91;94608.09;4994895;28;20230;-87
2022/04/22 03:45:37;;;;;;;24.97;14.60;;;;;;;10.14;93.66;94617.66;4994800;28;20181;-87
2022/04/22 03:48:05;;;;;;;26.13;15.17;;;;;;;9.78;93.96;94563.09;4994777;28;20287;-87
2022/04/22 03:50:31;;;;;;;25.17;15.27;;;;;;;10.18;93.91;94626.78;5012437;28;20196;-87
2022/04/22 03:52:56;;;;;;;26.50;14.60;;;;;;;9.94;94.66;94580.19;5016193;28;20182;-87
2022/04/22 03:55:22;;;;;;;24.40;14.73;;;;;;;10.24;94.76;94619.84;5001505;28;20666;-87
2022/04/22 04:00:32;;;;;;;18.67;12.13;;;;;;;10.06;93.64;94573.22;5019676;28;20536;-88
2022/04/22 04:02:58;;;;;;;25.67;16.10;;;;;;;10.21;93.93;94639.47;5019284;28;20168;-86
2022/04/22 04:05:23;;;;;;;28.33;17.20;;;;;;;10.10;94.64;94622.56;5019328;28;20165;-86
2022/04/22 04:07:49;;;;;;;32.43;19.20;;;;;;;9.81;94.99;94560.84;5019153;28;20601;-87
2022/04/22 04:18:31;;;;;;;25.83;16.73;;;;;;;10.24;94.53;94601.44;5019187;28;20160;-86
2022/04/22 04:23:41;;;;;;;23.10;14.77;;;;;;;10.11;94.30;94584.72;5019392;28;20172;-86
2022/04/22 04:26:07;;;;;;;25.03;14.77;;;;;;;9.99;94.85;94567.22;5029862;28;20184;-86
2022/04/22 04:28:37;;;;;;;22.23;14.67;;;;;;;9.90;94.97;94548.25;5025879;28;20199;-86
2022/04/22 04:31:03;;;;;;;19.37;10.90;;;;;;;10.20;94.83;94612.38;5010814;28;20171;-89
2022/04/22 04:33:29;;;;;;;20.80;12.47;;;;;;;10.11;94.97;94587.34;5021657;28;20188;-88
2022/04/22 04:35:55;;;;;;;20.80;13.67;;;;;;;10.15;94.81;94603.50;5022005;28;20199;-88
2022/04/22 04:38:22;;;;;;;23.63;14.50;;;;;;;10.12;95.27;94583.69;5011817;28;20187;-88
2022/04/22 04:40:48;;;;;;;21.40;14.23;;;;;;;10.10;95.25;94572.59;5025060;28;20176;-89
2022/04/22 04:43:14;;;;;;;19.60;10.07;;;;;;;10.23;94.47;94579.56;5009736;28;20172;-89
2022/04/22 04:45:40;;;;;;;12.77;8.63;;;;;;;10.05;93.44;94548.75;5003948;28;20243;-89
2022/04/22 04:48:06;;;;;;;15.57;10.00;;;;;;;10.25;93.28;94582.00;5027869;28;20708;-89
2022/04/22 04:50:32;;;;;;;14.73;9.83;;;;;;;10.33;93.62;94602.78;5033840;28;20267;-88
2022/04/22 04:52:58;;;;;;;15.97;9.70;;;;;;;10.43;93.34;94597.84;5028126;28;20259;-88
2022/04/22 04:55:23;;;;;;;16.50;9.87;;;;;;;10.45;93.55;94588.72;5034842;28;20164;-88
2022/04/22 04:57:49;;;;;;;17.60;10.87;;;;;;;10.53;93.51;94600.78;5020602;28;20172;-87
2022/04/22 05:00:16;;;;;;;18.07;11.80;;;;;;;10.28;93.43;94563.16;5020452;28;20175;-88
2022/04/22 05:02:42;;;;;;;13.97;10.33;;;;;;;10.40;93.84;94577.19;5038195;28;20163;-88
2022/04/22 05:05:09;;;;;;;14.63;10.57;;;;;;;10.43;93.22;94596.00;5034517;28;20167;-86
2022/04/22 05:07:53;;;;;;;14.70;8.53;;;;;;;10.06;93.88;94510.91;5017236;28;20203;-86
2022/04/22 05:10:20;;;;;;;17.93;11.60;;;;;;;10.53;93.95;94575.28;5021417;28;20230;-87
2022/04/22 05:12:46;;;;;;;20.53;11.47;;;;;;;10.20;93.76;94522.94;5005910;28;20186;-87
2022/04/22 05:15:12;;;;;;;16.90;9.30;;;;;;;10.34;93.49;94534.16;5002954;28;20230;-87
2022/04/22 05:17:40;;;;;;;12.60;9.20;;;;;;;10.32;93.58;94511.72;5029964;28;20178;-87
2022/04/22 05:20:06;;;;;;;13.20;9.33;;;;;;;10.45;92.06;94519.50;5035080;28;20160;-87
2022/04/22 05:22:32;;;;;;;14.13;8.57;;;;;;;10.67;91.72;94531.19;5034722;28;20581;-87
2022/04/22 05:24:57;;;;;;;13.33;8.73;;;;;;;10.18;89.80;94445.28;5034711;28;20182;-88
2022/04/22 05:27:22;;;;;;;13.90;8.63;;;;;;;10.14;88.60;94431.72;5016967;28;20195;-86
2022/04/22 05:32:38;;;;;;;11.97;8.33;;;;;;;10.67;88.46;94502.22;5034500;28;20182;-86
2022/04/22 05:35:08;;;;;;;12.53;7.73;;;;;;;10.07;88.13;94409.97;5034865;28;20258;-86
2022/04/22 05:37:53;;;;;;;11.40;8.20;;;;;;;10.45;88.73;94451.88;5012487;28;20172;-86
2022/04/22 05:40:20;;;;;;;13.93;7.43;;;;;;;10.67;87.87;94435.63;5005649;28;20203;-86
2022/04/22 05:42:47;;;;;;;11.50;6.80;;;;;;;10.58;86.11;94411.44;5020700;28;20184;-86
2022/04/22 05:45:15;;;;;;;9.10;6.93;;;;;;;10.73;85.33;94437.34;5007854;28;20186;-86
2022/04/22 05:47:41;;;;;;;12.43;7.27;;;;;;;10.84;85.64;94420.81;5015099;28;20219;-86
2022/04/22 05:50:10;;;;;;;15.03;7.30;;;;;;;10.81;85.14;94414.16;5034193;28;20571;-86
2022/04/22 05:52:37;;;;;;;12.07;7.07;;;;;;;10.81;84.42;94408.13;5013499;28;20183;-86
2022/04/22 05:55:05;;;;;;;8.07;6.27;;;;;;;10.85;85.04;94423.22;5006710;28;20183;-86
2022/04/22 05:57:32;;;;;;;9.70;6.43;;;;;;;10.69;84.37;94386.19;5005405;28;21001;-86
2022/04/22 05:59:58;;;;;;;10.23;7.10;;;;;;;10.85;84.34;94409.25;5004225;28;20262;-87
2022/04/22 06:02:24;;;;;;;9.70;6.90;;;;;;;11.03;84.60;94417.13;5015633;28;20191;-87
2022/04/22 06:04:50;;;;;;;10.70;6.50;;;;;;;10.98;84.22;94401.97;5033735;28;20187;-87
2022/04/22 06:07:16;;;;;;;9.80;6.60;;;;;;;10.88;83.11;94393.84;5024368;28;20283;-86
2022/04/22 06:12:26;;;;;;;9.83;6.30;;;;;;;10.79;82.47;94366.22;5027279;28;20175;-86
2022/04/22 06:14:52;;;;;;;13.67;7.13;;;;;;;10.73;82.35;94363.66;5006200;28;20188;-86
2022/04/22 06:17:17;;;;;;;14.20;6.93;;;;;;;11.06;83.01;94407.97;5004117;28;20188;-85
2022/04/22 06:19:43;;;;;;;9.77;6.70;;;;;;;11.11;83.34;94405.47;5022886;28;20176;-85
2022/04/22 06:22:08;;;;;;;12.97;7.67;;;;;;;10.78;83.25;94367.22;5018826;28;20183;-85
2022/04/22 06:24:33;;;;;;;10.23;6.60;;;;;;;10.72;82.48;94328.66;5023278;28;20639;-85
2022/04/22 06:26:59;;;;;;;9.50;6.47;;;;;;;11.35;82.56;94394.75;5007728;28;20194;-88
2022/04/22 06:29:25;;;;;;;10.43;6.23;;;;;;;11.28;81.23;94378.25;5019637;28;20180;-88
2022/04/22 06:31:51;;;;;;;11.73;7.17;;;;;;;11.57;81.35;94400.28;5013615;28;20252;-88
2022/04/22 06:34:17;;;;;;;10.23;7.20;;;;;;;11.66;79.04;94362.00;5013674;28;20199;-86
2022/04/22 06:36:43;;;;;;;10.83;7.37;;;;;;;12.21;80.27;94410.94;5001110;28;20203;-87
2022/04/22 06:39:09;;;;;;;9.43;6.90;;;;;;;12.26;77.43;94366.22;5021481;28;20290;-87
2022/04/22 06:47:04;;;;;;;9.73;6.07;;;;;;;13.14;72.88;94406.25;5014242;28;20215;-87
2022/04/22 06:49:30;;;;;;;12.73;5.90;;;;;;;13.25;72.79;94417.78;4995868;28;20173;-87
2022/04/22 06:51:56;;;;;;;7.30;5.53;;;;;;;13.42;74.49;94423.88;5013868;28;20183;-87
2022/04/22 06:54:22;;;;;;;11.07;5.97;;;;;;;13.43;71.00;94406.19;5013370;28;20180;-87
2022/04/22 06:56:49;;;;;;;7.07;5.10;;;;;;;13.46;70.47;94413.66;4995815;28;20661;-86
2022/04/22 06:59:19;;;;;;;7.73;5.30;;;;;;;13.18;70.52;94343.13;4995673;28;20211;-87
2022/04/22 07:01:45;;;;;;;6.63;5.10;;;;;;;13.34;70.46;94386.47;5013536;28;20157;-87
2022/04/22 07:04:11;;;;;;;7.47;5.47;;;;;;;13.40;71.00;94391.63;5013255;28;20160;-87
2022/04/22 07:06:37;;;;;;;6.57;5.43;;;;;;;13.38;70.32;94367.25;5015186;28;20156;-87
2022/04/22 07:09:04;;;;;;;8.53;5.23;;;;;;;13.69;69.48;94392.31;5019168;28;20215;-87
2022/04/22 07:11:30;;;;;;;8.20;4.87;;;;;;;13.77;68.68;94413.09;5021913;28;20200;-86
2022/04/22 07:13:58;;;;;;;6.67;4.73;;;;;;;13.73;69.24;94356.44;5004699;28;20215;-87
2022/04/22 07:16:24;;;;;;;10.33;5.27;;;;;;;14.14;69.17;94392.19;5023303;28;20187;-88
2022/04/22 07:18:51;;;;;;;9.97;5.27;;;;;;;14.12;67.12;94322.81;5022346;28;20233;-89
2022/04/22 07:21:17;;;;;;;7.03;5.17;;;;;;;14.39;67.25;94361.84;5007830;28;20181;-88
2022/04/22 07:23:44;;;;;;;9.57;5.20;;;;;;;14.72;66.53;94396.94;5013419;28;20176;-89
2022/04/22 07:26:10;;;;;;;12.13;4.87;;;;;;;14.96;66.67;94364.88;5001759;28;20262;-88
2022/04/22 07:28:38;;;;;;;7.70;4.50;;;;;;;15.26;65.92;94353.75;5022865;28;20200;-89
2022/04/22 07:31:04;;;;;;;7.53;4.77;;;;;;;15.49;63.79;94401.16;5025015;28;20235;-89
2022/04/22 07:33:30;;;;;;;6.73;4.50;;;;;;;15.41;63.39;94397.13;5014720;28;20215;-84
2022/04/22 07:35:57;;;;;;;7.50;3.73;;;;;;;15.63;62.43;94398.94;5031843;28;20182;-84
2022/04/22 07:38:24;;;;;;;4.47;3.80;;;;;;;15.36;61.37;94381.16;5003408;28;20168;-84
2022/04/22 07:40:51;;;;;;;6.53;3.83;;;;;;;15.19;62.58;94395.59;5018759;28;20566;-85
2022/04/22 07:48:46;;;;;;;5.23;3.87;;;;;;;15.44;61.47;94369.28;5026497;28;20246;-90
2022/04/22 07:51:12;;;;;;;6.47;3.47;;;;;;;15.31;59.95;94343.97;5005033;28;20171;-85
2022/04/22 07:53:37;;;;;;;5.50;3.27;;;;;;;15.20;60.69;94363.53;5022767;28;20179;-86
2022/04/22 07:56:06;;;;;;;11.77;4.13;;;;;;;15.44;62.06;94395.81;5015451;28;20632;-87
2022/04/22 07:58:32;;;;;;;4.90;3.43;;;;;;;15.73;61.60;94399.81;5024227;28;20176;-85
2022/04/22 08:00:58;;;;;;;5.77;4.43;;;;;;;15.84;61.17;94388.22;5021251;28;20182;-87
2022/04/22 08:03:24;;;;;;;7.77;4.43;;;;;;;16.01;60.11;94404.00;5001523;28;20219;-90
2022/04/22 08:05:50;;;;;;;5.93;4.47;;;;;;;16.26;60.14;94434.44;5002449;28;20201;-86
2022/04/22 08:08:16;;;;;;;9.20;4.87;;;;;;;16.40;60.38;94380.59;5027106;28;20215;-86
2022/04/22 08:10:41;;;;;;;8.20;5.07;;;;;;;17.01;62.13;94401.34;5014359;28;20260;-84
2022/04/22 08:13:07;;;;;;;6.67;4.37;;;;;;;17.06;58.49;94401.34;5031278;28;20563;-86
2022/04/22 08:15:33;;;;;;;6.60;5.40;;;;;;;17.32;57.39;94373.72;5006067;28;20191;-86
2022/04/22 08:18:02;;;;;;;9.63;6.40;;;;;;;16.77;56.94;94289.34;5002230;28;20176;-89
2022/04/22 08:20:31;;;;;;;5.07;3.90;;;;;;;17.27;57.38;94331.16;5003431;28;20188;-86
2022/04/22 08:23:00;;;;;;;1282.07;587.63;;;;;;;17.77;56.87;94404.13;5020506;28;20180;-89
2022/04/22 08:25:26;;;;;;;1999.90;999.90;;;;;;;17.28;56.14;94346.88;5022143;28;20187;-89
2022/04/22 08:27:52;;;;;;;1999.90;999.90;;;;;;;17.61;58.88;94352.72;5011765;28;20200;-90
2022/04/22 08:30:17;;;;;;;1999.90;999.90;;;;;;;18.19;56.90;94359.34;5024663;28;20242;-90
2022/04/22 08:32:44;;;;;;;1999.90;999.90;;;;;;;18.26;55.57;94338.53;5021013;28;20208;-83
2022/04/22 08:35:10;;;;;;;1999.90;999.90;;;;;;;18.81;54.49;94371.44;5025609;28;20191;-81
2022/04/22 08:37:42;;;;;;;1999.90;999.90;;;;;;;18.78;52.90;94377.28;5021761;28;20684;-85
2022/04/22 08:40:08;;;;;;;1999.90;999.90;;;;;;;18.47;54.73;94368.59;5028189;28;20169;-83
2022/04/22 08:42:35;;;;;;;1999.90;999.90;;;;;;;18.71;55.59;94364.28;5020716;28;20168;-83
2022/04/22 08:45:01;;;;;;;1999.90;999.90;;;;;;;18.58;53.88;94346.19;5016715;28;20646;-84
2022/04/22 08:50:16;;;;;;;1999.90;999.90;;;;;;;18.77;53.48;94352.50;5022976;28;20669;-88
2022/04/22 08:52:43;;;;;;;1999.90;999.90;;;;;;;18.92;53.65;94364.97;5026322;28;20168;-90
2022/04/22 08:55:10;;;;;;;1999.90;999.90;;;;;;;18.70;53.88;94280.00;5004665;28;20222;-88
2022/04/22 08:57:36;;;;;;;1999.90;999.90;;;;;;;19.41;51.95;94356.94;5007331;28;20180;-89
2022/04/22 09:00:07;;;;;;;1999.90;999.90;;;;;;;18.94;52.91;94296.13;5021200;28;20181;-87
2022/04/22 09:02:33;;;;;;;1999.90;999.90;;;;;;;18.67;53.78;94301.09;5027602;28;20175;-85
2022/04/22 09:04:59;;;;;;;1999.90;999.90;;;;;;;18.59;54.20;94307.00;5026744;28;20178;-87
2022/04/22 09:07:27;;;;;;;1999.90;999.90;;;;;;;18.14;53.84;94255.47;5011522;28;20199;-85
2022/04/22 09:09:53;;;;;;;1999.90;999.90;;;;;;;17.62;53.72;94194.66;5013229;28;20686;-86
2022/04/22 09:12:24;;;;;;;1999.90;999.90;;;;;;;18.22;54.72;94331.38;5020007;28;20699;-86
2022/04/22 09:14:52;;;;;;;1999.90;999.90;;;;;;;18.20;54.74;94328.16;5031563;28;20234;-86
2022/04/22 09:17:28;;;;;;;1999.90;999.90;;;;;;;18.18;54.48;94324.97;5031877;28;20297;-85
2022/04/22 09:19:58;;;;;;;1999.90;999.90;;;;;;;17.55;55.45;94215.41;5007774;28;20180;-86
2022/04/22 09:22:38;;;;;;;1999.90;999.90;;;;;;;18.37;54.90;94302.78;5022084;28;20191;-88
2022/04/22 09:25:05;;;;;;;1999.90;999.90;;;;;;;18.53;53.51;94311.50;5010951;28;20199;-86
2022/04/22 09:27:44;;;;;;;1999.90;999.90;;;;;;;18.53;53.75;94284.84;5029730;28;21014;-87
2022/04/22 09:30:12;;;;;;;1999.90;999.90;;;;;;;18.65;53.01;94335.25;5012731;28;20180;-86
2022/04/22 09:32:43;;;;;;;1999.90;999.90;;;;;;;18.76;56.98;94315.47;5026865;28;20180;-84
2022/04/22 09:35:13;;;;;;;1999.90;999.90;;;;;;;18.90;54.18;94326.31;5009085;28;20180;-84
2022/04/22 09:43:55;;;;;;;1764.18;456.10;;;;;;;18.55;53.01;94280.06;5019720;28;20187;-87
2022/04/22 09:46:30;;;;;;;1999.90;999.90;;;;;;;18.65;55.36;94276.56;4991771;28;20180;-84
2022/04/22 09:48:56;;;;;;;1999.90;999.90;;;;;;;18.74;53.69;94288.25;5021465;28;20207;-85
2022/04/22 09:51:30;;;;;;;1999.90;999.90;;;;;;;18.76;54.26;94281.59;5021813;28;20684;-90
2022/04/22 09:54:03;;;;;;;1999.90;999.90;;;;;;;18.85;54.07;94277.25;5003907;28;20560;-84
2022/04/22 09:56:29;;;;;;;1999.90;999.90;;;;;;;18.68;54.61;94284.03;5025366;28;20179;-86
2022/04/22 09:58:56;;;;;;;1999.90;999.90;;;;;;;18.31;54.79;94231.94;5025788;28;20290;-85
2022/04/22 10:01:24;;;;;;;1999.90;999.90;;;;;;;18.44;54.01;94262.50;5016278;28;20180;-86
2022/04/22 10:03:50;;;;;;;1999.90;999.90;;;;;;;18.59;54.80;94251.03;5014472;28;20635;-89
2022/04/22 10:06:16;;;;;;;1999.90;999.90;;;;;;;18.18;53.89;94194.41;5013886;28;20192;-86
2022/04/22 10:08:46;;;;;;;1999.90;999.90;;;;;;;18.37;54.99;94211.38;5025633;28;20231;-91
2022/04/22 10:11:15;;;;;;;1999.90;999.90;;;;;;;18.46;55.21;94199.88;5006401;28;20172;-93
2022/04/22 10:13:46;;;;;;;1999.90;999.90;;;;;;;18.73;57.17;94260.78;5002517;28;20343;-87
2022/04/22 10:16:13;;;;;;;1999.90;999.90;;;;;;;18.67;54.21;94231.78;5003614;28;20188;-86
2022/04/22 10:18:39;;;;;;;1999.90;999.90;;;;;;;18.27;55.53;94204.22;5022601;28;20187;-86
2022/04/22 10:21:06;;;;;;;1999.90;999.90;;;;;;;18.56;54.99;94231.00;5018308;28;20949;-85
2022/04/22 10:23:32;;;;;;;1999.90;999.90;;;;;;;18.14;55.33;94214.69;5019076;28;20184;-86
2022/04/22 10:25:58;;;;;;;1999.90;999.90;;;;;;;18.12;55.26;94201.66;5022416;28;20965;-86
2022/04/22 10:28:25;;;;;;;1999.90;999.90;;;;;;;18.34;55.54;94235.91;5000727;28;20582;-86
2022/04/22 10:30:54;;;;;;;1999.90;999.90;;;;;;;18.24;55.77;94191.47;5001829;28;20804;-84
2022/04/22 10:33:27;;;;;;;1999.90;999.90;;;;;;;18.20;56.58;94201.06;5021394;28;20176;-87
2022/04/22 10:35:59;;;;;;;1999.90;999.90;;;;;;;18.49;57.06;94214.53;5011987;28;20729;-85
2022/04/22 10:38:29;;;;;;;1999.90;999.90;;;;;;;18.70;57.53;94217.88;5013453;28;20532;-87
2022/04/22 10:40:55;;;;;;;1999.90;999.90;;;;;;;18.58;54.65;94178.25;5013830;28;20211;-89
2022/04/22 10:43:26;;;;;;;1999.90;999.90;;;;;;;18.98;55.30;94213.69;5013355;28;20180;-89
2022/04/22 10:48:39;;;;;;;1999.90;999.90;;;;;;;19.08;57.12;94214.41;5033234;28;20198;-87
2022/04/22 10:51:07;;;;;;;1999.90;999.90;;;;;;;19.18;54.73;94206.31;5033881;28;20622;-92
2022/04/22 10:53:43;;;;;;;1999.90;999.90;;;;;;;19.21;54.69;94195.06;5009487;28;20176;-87
2022/04/22 10:56:24;;;;;;;1999.90;999.90;;;;;;;19.43;56.48;94199.97;5018814;28;20164;-87
2022/04/22 10:59:21;;;;;;;1999.90;999.90;;;;;;;19.05;53.75;94216.81;5001466;28;20180;-90
2022/04/22 11:01:48;;;;;;;1999.90;999.90;;;;;;;18.86;56.98;94198.03;5037391;28;20259;-90
2022/04/22 11:04:23;;;;;;;1999.90;999.90;;;;;;;18.71;54.33;94158.13;5023738;28;20251;-91
2022/04/22 11:06:49;;;;;;;1999.90;999.90;;;;;;;19.10;55.39;94182.13;5006714;28;20262;-89
2022/04/22 11:09:27;;;;;;;1893.15;525.97;;;;;;;19.19;52.70;94199.91;4995387;28;20270;-92
2022/04/22 11:11:54;;;;;;;1999.90;984.10;;;;;;;19.01;52.19;94173.91;5003584;28;20187;-89
2022/04/22 11:14:25;;;;;;;1999.90;999.90;;;;;;;19.13;51.91;94171.66;5001792;28;20559;-90
2022/04/22 11:16:54;;;;;;;1999.90;999.90;;;;;;;18.88;54.55;94075.06;5004934;28;20160;-90
2022/04/22 11:19:19;;;;;;;1999.90;999.90;;;;;;;19.52;51.75;94176.94;5025849;28;20172;-91
2022/04/22 11:21:48;;;;;;;1165.20;929.88;;;;;;;19.29;51.89;94126.13;5032586;28;20228;-90
2022/04/22 11:24:18;;;;;;;469.75;425.80;;;;;;;19.51;50.67;94148.63;5014654;28;20183;-91
2022/04/22 11:26:45;;;;;;;286.10;267.73;;;;;;;19.58;51.66;94150.97;5032590;28;20167;-90
2022/04/22 11:29:12;;;;;;;1013.92;942.22;;;;;;;19.42;52.86;94130.81;5015191;28;20171;-92
2022/04/22 11:31:38;;;;;;;114.05;107.40;;;;;;;19.74;51.13;94181.75;5033374;28;20187;-91
2022/04/22 11:34:05;;;;;;;5.05;3.55;;;;;;;19.46;51.48;94166.56;5008308;28;20187;-85
2022/04/22 11:36:41;;;;;;;7.00;3.65;;;;;;;19.40;51.55;94165.00;5023261;28;20184;-86
2022/04/22 11:39:07;;;;;;;11.43;10.68;;;;;;;19.39;52.29;94158.88;5019439;28;20244;-85
2022/04/22 11:41:32;;;;;;;7.55;3.85;;;;;;;19.36;51.90;94164.00;5022258;28;20748;-85
2022/04/22 11:43:58;;;;;;;6.18;3.70;;;;;;;19.18;52.21;94107.59;5019391;28;20610;-86
2022/04/22 11:46:23;;;;;;;1536.30;994.60;;;;;;;19.37;54.27;94112.19;5021793;28;20179;-86
2022/04/22 11:48:53;;;;;;;635.47;567.00;;;;;;;19.35;51.45;94087.66;5022989;28;20282;-86
2022/04/22 11:51:20;;;;;;;51.83;48.65;;;;;;;19.19;51.09;94058.47;5023583;28;20641;-87
2022/04/22 11:53:51;;;;;;;8.35;4.78;;;;;;;19.66;51.42;94112.94;5005057;28;20245;-86
2022/04/22 11:56:24;;;;;;;10.90;4.47;;;;;;;19.80;51.47;94110.41;5023012;28;20179;-85
2022/04/22 11:58:56;;;;;;;5.93;3.03;;;;;;;19.41;50.33;94044.59;5022717;28;20184;-89
2022/04/22 12:08:00;;;;;;;8.98;3.60;;;;;;;20.21;50.02;94126.69;5025833;28;20239;-86
2022/04/22 12:09:49;;;;;;;7.28;3.33;;;;;;;20.31;50.26;94131.91;5019769;28;20220;-84
2022/04/22 12:12:14;;;;;;;5.30;3.05;;;;;;;20.31;50.21;94116.66;5020439;28;21700;-87
2022/04/22 12:14:40;;;;;;;4.30;3.13;;;;;;;20.37;49.07;94117.41;5026786;28;20171;-87
2022/04/22 12:17:05;;;;;;;12.73;3.25;;;;;;;20.09;49.40;94075.53;5007891;28;20191;-86